createdAt,value
2022-10-10T00:00:16.798Z,3.17
2022-10-10T00:05:19.085Z,2.72
2022-10-10T00:10:20.966Z,3.50
2022-10-10T00:15:22.888Z,3.33
2022-10-10T00:20:24.603Z,3.15
2022-10-10T00:25:27.075Z,3.07
2022-10-10T00:30:29.283Z,3.30
2022-10-10T00:35:31.379Z,2.80
2022-10-10T00:40:33.386Z,2.97
2022-10-10T00:45:35.009Z,3.03
2022-10-10T00:50:43.090Z,3.42
2022-10-10T00:55:45.573Z,3.35
2022-10-10T01:00:47.664Z,3.63
2022-10-10T01:05:50.293Z,2.90
2022-10-10T01:11:09.665Z,3.05
2022-10-10T01:16:30.830Z,2.72
2022-10-10T01:21:43.611Z,3.10
2022-10-10T01:27:03.357Z,2.92
2022-10-10T01:32:11.711Z,3.08
2022-10-10T01:37:16.307Z,3.40
2022-10-10T01:42:50.791Z,3.00
2022-10-10T01:47:55.901Z,3.47
2022-10-10T01:53:04.043Z,3.15
2022-10-10T01:58:44.652Z,3.45
2022-10-10T02:03:54.382Z,3.35
2022-10-10T02:09:04.725Z,3.65
2022-10-10T02:14:14.236Z,3.40
2022-10-10T02:19:18.943Z,3.42
2022-10-10T02:24:22.899Z,3.08
2022-10-10T02:29:31.035Z,3.40
2022-10-10T02:34:37.313Z,3.42
2022-10-10T02:39:44.823Z,3.13
2022-10-10T02:44:47.674Z,3.55
2022-10-10T02:49:51.913Z,3.70
2022-10-10T02:54:53.888Z,3.65
2022-10-10T02:59:55.795Z,3.30
2022-10-10T03:04:58.222Z,3.33
2022-10-10T03:10:00.118Z,3.72
2022-10-10T03:15:02.199Z,4.22
2022-10-10T03:20:04.283Z,4.10
2022-10-10T03:25:06.308Z,4.00
2022-10-10T03:30:08.546Z,4.40
2022-10-10T03:35:10.619Z,4.60
2022-10-10T03:40:12.335Z,4.40
2022-10-10T03:45:14.180Z,4.18
2022-10-10T03:50:16.354Z,4.30
2022-10-10T03:55:18.038Z,4.23
2022-10-10T04:00:19.964Z,4.50
2022-10-10T04:05:21.905Z,4.90
2022-10-10T04:10:23.568Z,6.10
2022-10-10T04:15:25.634Z,5.57
2022-10-10T04:20:27.391Z,5.55
2022-10-10T04:25:29.775Z,5.60
2022-10-10T04:30:34.251Z,5.87
2022-10-10T04:35:37.239Z,6.53
2022-10-10T04:40:39.283Z,6.35
2022-10-10T04:45:40.999Z,7.03
2022-10-10T04:50:42.933Z,10.15
2022-10-10T04:55:45.252Z,11.30
2022-10-10T05:00:52.153Z,13.37
2022-10-10T05:05:54.176Z,12.15
2022-10-10T05:10:55.914Z,11.60
2022-10-10T05:15:57.663Z,11.40
2022-10-10T05:21:03.431Z,11.75
2022-10-10T05:26:05.669Z,12.02
2022-10-10T05:31:07.793Z,5.28
2022-10-10T05:36:12.099Z,9.93
2022-10-10T05:41:13.787Z,14.90
2022-10-10T05:46:15.475Z,9.35
2022-10-10T05:51:17.259Z,9.18
2022-10-10T05:56:19.097Z,8.80
2022-10-10T06:01:20.731Z,11.68
2022-10-10T06:06:23.923Z,13.05
2022-10-10T06:11:26.043Z,13.60
2022-10-10T06:16:28.061Z,14.70
2022-10-10T06:21:29.826Z,16.60
2022-10-10T06:26:31.501Z,19.83
2022-10-10T06:31:33.405Z,23.85
2022-10-10T06:36:35.369Z,22.83
2022-10-10T06:41:37.033Z,22.97
2022-10-10T06:46:45.456Z,21.90
2022-10-10T06:51:47.470Z,22.37
2022-10-10T06:56:49.551Z,20.17
2022-10-10T07:01:51.367Z,19.87
2022-10-10T07:06:53.217Z,22.00
2022-10-10T07:11:55.010Z,22.08
2022-10-10T07:16:56.859Z,22.98
2022-10-10T07:21:58.891Z,21.73
2022-10-10T07:27:06.285Z,21.60
2022-10-10T07:32:08.532Z,22.15
2022-10-10T07:37:10.202Z,21.47
2022-10-10T07:42:12.033Z,21.05
2022-10-10T07:47:13.711Z,21.27
2022-10-10T07:52:15.646Z,21.58
2022-10-10T07:57:17.352Z,18.57
2022-10-10T08:02:19.264Z,21.88
2022-10-10T08:07:21.036Z,20.58
2022-10-10T08:12:22.942Z,19.65
2022-10-10T08:17:24.874Z,17.87
2022-10-10T08:22:26.680Z,18.88
2022-10-10T08:27:28.363Z,17.42
2022-10-10T08:32:30.266Z,18.13
2022-10-10T08:37:37.102Z,18.10
2022-10-10T08:42:48.927Z,17.77
2022-10-10T08:47:58.649Z,16.80
2022-10-10T08:53:11.904Z,17.40
2022-10-10T08:58:23.911Z,16.25
2022-10-10T09:03:56.204Z,16.77
2022-10-10T09:08:57.829Z,17.70
2022-10-10T09:14:37.248Z,16.50
2022-10-10T09:20:22.931Z,15.20
2022-10-10T09:25:31.401Z,15.98
2022-10-10T09:30:37.344Z,14.88
2022-10-10T09:35:41.238Z,14.43
2022-10-10T09:41:00.226Z,14.80
2022-10-10T09:46:02.448Z,13.65
2022-10-10T09:51:08.351Z,13.43
2022-10-10T09:56:44.967Z,13.13
2022-10-10T10:02:02.236Z,13.30
2022-10-10T10:07:25.230Z,13.63
2022-10-10T10:12:38.158Z,12.10
2022-10-10T10:17:39.867Z,12.85
2022-10-10T10:22:46.890Z,11.83
2022-10-10T10:27:48.625Z,11.73
2022-10-10T10:33:01.238Z,12.27
2022-10-10T10:38:21.213Z,10.98
2022-10-10T10:44:16.470Z,11.52
2022-10-10T10:49:19.716Z,11.05
2022-10-10T10:55:11.449Z,11.15
2022-10-10T11:00:41.239Z,10.65
2022-10-10T11:06:02.096Z,9.90
2022-10-10T11:11:06.722Z,9.18
2022-10-10T11:16:43.522Z,7.95
2022-10-10T11:21:49.538Z,7.00
2022-10-10T11:26:55.750Z,7.53
2022-10-10T11:32:07.026Z,7.32
2022-10-10T11:37:25.561Z,7.38
2022-10-10T11:42:33.330Z,7.45
2022-10-10T11:47:39.489Z,7.10
2022-10-10T11:53:10.860Z,7.05
2022-10-10T11:58:12.450Z,6.22
2022-10-10T12:03:14.222Z,6.25
2022-10-10T12:08:22.089Z,4.90
2022-10-10T12:13:28.027Z,5.85
2022-10-10T12:18:39.518Z,5.55
2022-10-10T12:23:43.216Z,6.28
2022-10-10T12:29:01.840Z,7.00
2022-10-10T12:34:11.514Z,6.60
2022-10-10T12:39:13.181Z,6.35
2022-10-10T12:44:15.078Z,6.27
2022-10-10T12:49:22.657Z,7.20
2022-10-10T12:54:27.950Z,6.50
2022-10-10T12:59:29.700Z,6.13
2022-10-10T13:04:31.838Z,6.43
2022-10-10T13:09:35.852Z,5.57
2022-10-10T13:14:43.209Z,6.00
2022-10-10T13:19:44.829Z,5.50
2022-10-10T13:24:47.913Z,5.05
2022-10-10T13:29:50.802Z,5.70
2022-10-10T13:34:57.188Z,4.50
2022-10-10T13:39:59.350Z,4.43
2022-10-10T13:45:03.687Z,4.20
2022-10-10T13:50:31.446Z,4.68
2022-10-10T13:55:37.344Z,4.18
2022-10-10T14:00:39.360Z,4.60
2022-10-10T14:05:44.282Z,4.47
2022-10-10T14:11:08.465Z,4.40
2022-10-10T14:16:28.381Z,3.67
2022-10-10T14:21:30.062Z,4.00
2022-10-10T14:26:32.088Z,3.33
2022-10-10T14:31:33.762Z,3.53
2022-10-10T14:36:38.929Z,3.85
2022-10-10T14:41:40.666Z,3.78
2022-10-10T14:51:58.961Z,3.92
2022-10-10T14:57:06.967Z,3.90
2022-10-10T15:02:11.382Z,4.10
2022-10-10T15:07:14.601Z,3.38
2022-10-10T15:12:16.941Z,3.60
2022-10-10T15:17:18.610Z,3.45
2022-10-10T15:22:20.393Z,3.70
2022-10-10T15:27:22.361Z,3.43
2022-10-10T15:32:24.562Z,4.07
2022-10-10T15:37:26.784Z,4.57
2022-10-10T15:42:28.583Z,4.20
2022-10-10T15:47:31.095Z,4.13
2022-10-10T15:52:33.076Z,4.13
2022-10-10T15:57:35.106Z,3.80
2022-10-10T16:02:37.510Z,4.20
2022-10-10T16:07:47.560Z,4.50
2022-10-10T16:12:50.001Z,4.57
2022-10-10T16:17:51.821Z,4.40
2022-10-10T16:22:53.512Z,4.20
2022-10-10T16:32:59.123Z,4.10
2022-10-10T16:38:00.869Z,4.68
2022-10-10T16:43:03.406Z,4.90
2022-10-10T16:48:05.314Z,4.38
2022-10-10T16:53:09.422Z,4.47
2022-10-10T16:58:11.297Z,3.85
2022-10-10T17:03:12.909Z,5.97
2022-10-10T17:08:14.725Z,4.72
2022-10-10T17:13:16.471Z,4.68
2022-10-10T17:18:19.190Z,3.63
2022-10-10T17:23:21.004Z,4.47
2022-10-10T17:28:22.739Z,3.92
2022-10-10T17:33:24.846Z,3.57
2022-10-10T17:38:39.650Z,3.03
2022-10-10T17:43:42.372Z,4.80
2022-10-10T17:48:44.090Z,4.57
2022-10-10T17:53:45.870Z,4.20
2022-10-10T17:58:48.601Z,3.83
2022-10-10T18:08:54.165Z,3.17
2022-10-10T18:14:00.375Z,4.32
2022-10-10T18:19:04.769Z,2.60
2022-10-10T18:24:06.969Z,3.75
2022-10-10T18:29:08.739Z,4.72
2022-10-10T18:34:11.257Z,4.47
2022-10-10T18:39:17.952Z,2.88
2022-10-10T18:44:19.851Z,5.40
2022-10-10T18:49:21.860Z,8.48
2022-10-10T18:54:23.810Z,3.80
2022-10-10T18:59:25.619Z,3.57
2022-10-10T19:04:27.341Z,4.32
2022-10-10T19:09:29.322Z,6.05
2022-10-10T19:14:31.067Z,9.43
2022-10-10T19:19:33.069Z,3.70
2022-10-10T19:24:35.499Z,4.82
2022-10-10T19:29:37.324Z,3.13
2022-10-10T19:34:40.758Z,4.78
2022-10-10T19:39:42.449Z,4.10
2022-10-10T19:44:47.263Z,3.78
2022-10-10T19:49:49.335Z,4.10
2022-10-10T19:54:53.006Z,4.03
2022-10-10T19:59:54.645Z,4.43
2022-10-10T20:04:56.571Z,4.00
2022-10-10T20:09:58.315Z,3.45
2022-10-10T20:15:00.541Z,3.60
2022-10-10T20:20:02.273Z,5.45
2022-10-10T20:25:04.666Z,4.43
2022-10-10T20:30:07.234Z,5.38
2022-10-10T20:35:09.185Z,5.45
2022-10-10T20:40:11.258Z,8.30
2022-10-10T20:45:13.285Z,8.52
2022-10-10T20:50:14.937Z,7.20
2022-10-10T20:55:16.638Z,6.20
2022-10-10T21:00:18.481Z,7.80
2022-10-10T21:05:20.258Z,7.93
2022-10-10T21:10:21.964Z,4.35
2022-10-10T21:15:23.701Z,5.30
2022-10-10T21:20:25.425Z,4.93
2022-10-10T21:25:27.106Z,4.93
2022-10-10T21:30:29.749Z,3.10
2022-10-10T21:35:31.712Z,3.20
2022-10-10T21:40:36.390Z,5.50
2022-10-10T21:45:39.622Z,3.50
2022-10-10T21:50:41.291Z,3.60
2022-10-10T21:55:43.007Z,4.78
2022-10-10T22:00:44.933Z,7.55
2022-10-10T22:05:46.664Z,6.93
2022-10-10T22:10:48.383Z,6.47
2022-10-10T22:15:50.041Z,5.57
2022-10-10T22:20:52.008Z,5.00
2022-10-10T22:25:54.029Z,5.43
2022-10-10T22:30:55.655Z,5.68
2022-10-10T22:35:57.304Z,5.57
2022-10-10T22:40:59.149Z,5.53
2022-10-10T22:46:01.356Z,4.90
2022-10-10T22:51:13.514Z,6.68
2022-10-10T22:56:19.102Z,5.78
2022-10-10T23:01:23.289Z,4.75
2022-10-10T23:06:25.114Z,4.95
2022-10-10T23:11:26.880Z,3.38
2022-10-10T23:16:28.584Z,4.38
2022-10-10T23:21:30.955Z,6.88
2022-10-10T23:26:32.676Z,7.00
2022-10-10T23:31:34.380Z,5.18
2022-10-10T23:36:36.265Z,4.72
2022-10-10T23:41:38.115Z,4.85
2022-10-10T23:46:39.807Z,6.18
2022-10-10T23:51:41.567Z,4.82
2022-10-10T23:56:43.357Z,5.20
